Track Томаровская Ульяна

Time Latitude Longitude Accuracy (66% radius in meters) Altitude (meters) Speed (km/hour) Bearing (degrees) Battery (%) GPS flag
08:12:38 50.414112 36.866008 0 0 0 0 1 delete
08:12:32 50.414290 36.865866 0 0 0 0 1 delete
08:12:27 50.414460 36.865677 0 0 0 0 1 delete
08:12:22 50.414643 36.865541 0 0 0 0 1 delete
08:12:17 50.414824 36.865414 0 0 0 0 1 delete
08:12:12 50.415000 36.865261 0 0 0 0 1 delete
08:12:06 50.415189 36.865144 0 0 0 0 1 delete
08:12:05 50.415216 36.865131 0 0 0 0 1 delete
08:12:00 50.415331 36.864904 0 0 0 0 1 delete
08:11:55 50.415446 36.864679 0 0 0 0 1 delete
08:11:50 50.415543 36.864441 0 0 0 0 1 delete
08:11:44 50.415647 36.864185 0 0 0 0 1 delete
08:11:43 50.415665 36.864142 0 0 0 0 1 delete
08:11:37 50.415800 36.863953 0 0 0 0 1 delete
08:11:30 50.415967 36.863795 0 0 0 0 1 delete
08:11:24 50.416117 36.863661 0 0 0 0 1 delete
08:11:18 50.416260 36.863487 0 0 0 0 1 delete
08:11:12 50.416413 36.863304 0 0 0 0 1 delete
08:11:06 50.416560 36.863122 0 0 0 0 1 delete
08:11:01 50.416743 36.863054 0 0 0 0 1 delete
08:11:00 50.416772 36.863055 0 0 0 0 1 delete
08:10:53 50.416949 36.862973 0 0 0 0 1 delete
08:10:47 50.417133 36.862950 0 0 0 0 1 delete
08:10:40 50.417314 36.862884 0 0 0 0 1 delete
08:10:32 50.417483 36.862724 0 0 0 0 1 delete
08:10:26 50.417576 36.862604 0 0 0 0 1 delete
08:10:21 50.417626 36.862504 0 0 0 0 1 delete
08:10:16 50.417683 36.862361 0 0 0 0 1 delete
08:10:12 50.417722 36.862300 0 0 0 0 1 delete
08:10:01 50.417892 36.862143 0 0 0 0 1 delete
08:09:52 50.417980 36.862021 0 0 0 0 1 delete
08:09:43 50.418079 36.861903 0 0 0 0 1 delete
08:09:33 50.418254 36.861784 0 0 0 0 1 delete
08:09:26 50.418298 36.861662 0 0 0 0 1 delete
08:09:16 50.418401 36.861616 0 0 0 0 1 delete
08:09:11 50.418488 36.861609 0 0 0 0 1 delete
08:09:07 50.418540 36.861537 0 0 0 0 1 delete
08:08:40 50.418692 36.861388 0 0 0 0 1 delete
08:08:32 50.418740 36.861358 0 0 0 0 1 delete
08:08:27 50.418794 36.861268 0 0 0 0 1 delete
08:08:16 50.418857 36.861006 0 0 0 0 1 delete
08:08:07 50.418887 36.860751 0 0 0 0 1 delete
08:08:00 50.418973 36.860567 0 0 0 0 1 delete
08:07:52 50.418995 36.860368 0 0 0 0 1 delete
08:07:48 50.418969 36.860310 0 0 0 0 1 delete
08:07:41 50.418915 36.860232 0 0 0 0 1 delete
08:07:36 50.418906 36.860138 0 0 0 0 1 delete
08:07:25 50.418911 36.859915 0 0 0 0 1 delete
08:07:22 50.418912 36.859886 0 0 0 0 1 delete
08:07:12 50.418901 36.859602 0 0 0 0 1 delete